Flight Track Log - Related Links

Times and Time Zones

All times are in EDT time to prevent confusion due to time zone crossing. See the N448ST flight status page for this flight to view local times or setup timezone preferences in your user account.


Time Position Orientation Groundspeed Altitude Reporting Facility
EDT Latitude Longitude Course Direction KTS MPH feet Rate Location/Type
Mon 11:17:44 AM 40.9833 -72.2500 301° West 116 133 2,000  Level New York TRACON
Mon 11:18:44 AM 41.0000 -72.2833 304° West 122 140 2,800 800 Climbing New York TRACON
Mon 11:19:44 AM 41.0167 -72.3167 304° West 134 154 3,600 574 Climbing New York TRACON
Mon 11:20:39 AM 41.0333 -72.3667 294° West 152 175 3,900 158 Climbing New York TRACON
Mon 11:21:38 AM 41.0667 -72.4167 311° West 177 204 3,900  Level New York TRACON
Mon 11:22:39 AM 41.0833 -72.4833 288° West 180 207 3,900  Level New York TRACON
Mon 11:23:00 AM 41.0926 -72.5369 301° West  Level FlightAware Approximate
Mon 11:23:39 AM 41.1167 -72.5333 312° West 181 208 3,900  Level New York TRACON
Mon 11:24:38 AM 41.1333 -72.6000 288° West 182 209 3,900  Level New York TRACON
Mon 11:25:33 AM 41.1500 -72.6500 294° West 178 205 3,900  Level New York TRACON
Mon 11:26:38 AM 41.1833 -72.7000 312° West 181 208 3,900  Level New York TRACON
Mon 11:27:33 AM 41.2000 -72.7667 288° West 180 207 3,900  Level New York TRACON
Mon 11:28:38 AM 41.2333 -72.8167 312° West 180 207 3,900  Level New York TRACON
Mon 11:29:32 AM 41.2500 -72.8667 294° West 179 206 3,900 261 Level New York TRACON
Mon 11:30:33 AM 41.2667 -72.9333 288° West 163 188 4,400 614 Climbing New York TRACON
Mon 11:31:39 AM 41.2667 -72.9833 270° West 139 160 5,200 672 Climbing New York TRACON
Mon 11:32:38 AM 41.2667 -73.0333 270° West 142 163 5,800 403 Climbing New York TRACON
Mon 11:33:38 AM 41.2667 -73.1000 270° West 160 184 6,000 100 Climbing New York TRACON
Mon 11:34:38 AM 41.2667 -73.1667 270° West 169 194 6,000  Level New York TRACON
Mon 11:35:39 AM 41.2667 -73.2167 270° West 169 194 6,000  Level New York TRACON
Mon 11:36:39 AM 41.2667 -73.2833 270° West 171 197 6,000  Level New York TRACON
Mon 11:37:39 AM 41.2667 -73.3500 270° West 170 196 6,000 50 Level New York TRACON
Mon 11:38:39 AM 41.2667 -73.4167 270° West 168 193 6,100  Climbing New York TRACON
Mon 11:39:33 AM 41.2667 -73.4667 270° West 172 198 6,000 -53 Descending New York TRACON
Mon 11:40:33 AM 41.2833 -73.5333 288° West 172 198 6,000  Level New York TRACON
Mon 11:41:33 AM 41.2833 -73.6000 270° West 172 198 6,000 -100 Level New York TRACON
Mon 11:42:33 AM 41.2833 -73.6500 270° West 175 201 5,800 -429 Descending New York TRACON
Mon 11:43:39 AM 41.2667 -73.7333 255° West 190 219 5,100 -400 Descending New York TRACON
Mon 11:44:33 AM 41.2500 -73.7833 246° West 180 207 5,000 -53 Descending New York TRACON
Mon 11:45:33 AM 41.2500 -73.8500 270° West 173 199 5,000 -95 Level New York TRACON
Mon 11:46:39 AM 41.2500 -73.9167 270° West 173 199 4,800 -400 Descending New York TRACON
Mon 11:47:33 AM 41.2333 -73.9833 252° West 191 220 4,200 -421 Descending New York TRACON
Mon 11:48:33 AM 41.2333 -74.0500 270° West 187 215 4,000 -100 Descending New York TRACON
Mon 11:49:33 AM 41.2000 -74.1000 228° Southwest 176 203 4,000  Level New York TRACON
Mon 11:50:27 AM 41.1833 -74.1500 246° West 164 189 4,000  Level New York TRACON
Mon 11:51:27 AM 41.1500 -74.2000 228° Southwest 165 190 4,000  Level New York TRACON
Mon 11:52:27 AM 41.1167 -74.2333 217° Southwest 165 190 4,000 -300 Level New York TRACON
Mon 11:53:27 AM 41.0833 -74.2667 217° Southwest 181 208 3,400 -500 Descending New York TRACON
Mon 11:54:27 AM 41.0333 -74.2667 180° South 178 205 3,000 -350 Descending New York TRACON
Mon 11:55:27 AM 40.9833 -74.2500 166° South 171 197 2,700 -450 Descending New York TRACON
Mon 11:56:27 AM 40.9500 -74.2667 201° Southwest 187 215 2,100 -350 Descending New York TRACON
Mon 11:57:27 AM 40.9167 -74.3000 217° Southwest 164 189 2,000 -50 Descending New York TRACON
Mon 11:58:27 AM 40.8833 -74.3333 217° Southwest 155 178 2,000 -524 Level New York TRACON
Mon 11:59:33 AM 40.8333 -74.3833 217° Southwest 154 177 900 -600 Descending New York TRACON
Mon 12:00:27 PM 40.8000 -74.4000 201° Southwest 151 174 800 -111 Descending New York TRACON
Mon 12:02:00 PM 40.7833 -74.4000 211° Southwest  Level FlightAware Approximate

Login

Don't have an account? Register now (free) for customized features, flight alerts, and more!